createdAt,value
2022-11-02T00:01:29.016Z,57.80
2022-11-02T00:03:56.396Z,51.20
2022-11-02T00:06:23.298Z,54.50
2022-11-02T00:08:50.841Z,52.10
2022-11-02T00:11:18.121Z,50.00
2022-11-02T00:13:46.088Z,54.10
2022-11-02T00:16:14.890Z,52.70
2022-11-02T00:18:41.865Z,49.10
2022-11-02T00:21:09.113Z,55.00
2022-11-02T00:23:36.272Z,52.40
2022-11-02T00:26:03.296Z,48.90
2022-11-02T00:28:31.447Z,45.20
2022-11-02T00:30:59.101Z,57.70
2022-11-02T00:33:27.106Z,55.30
2022-11-02T00:35:55.101Z,47.70
2022-11-02T00:38:23.314Z,48.80
2022-11-02T00:40:51.263Z,50.30
2022-11-02T00:43:18.819Z,51.50
2022-11-02T00:45:46.070Z,51.20
2022-11-02T00:48:13.649Z,54.80
2022-11-02T00:50:41.212Z,56.70
2022-11-02T00:59:16.058Z,46.10
2022-11-02T01:01:47.547Z,47.90
2022-11-02T01:04:14.808Z,47.20
2022-11-02T01:06:43.014Z,44.40
2022-11-02T01:09:10.867Z,37.30
2022-11-02T01:11:38.173Z,45.10
2022-11-02T01:14:05.290Z,30.50
2022-11-02T01:16:32.502Z,26.10
2022-11-02T01:18:59.730Z,30.80
2022-11-02T01:21:27.361Z,34.30
2022-11-02T01:23:56.249Z,35.70
2022-11-02T01:26:23.078Z,39.50
2022-11-02T01:28:53.709Z,37.70
2022-11-02T01:31:20.979Z,42.30
2022-11-02T01:33:48.278Z,45.50
2022-11-02T01:36:17.085Z,36.10
2022-11-02T01:38:44.473Z,39.20
2022-11-02T01:41:12.276Z,43.60
2022-11-02T01:43:44.298Z,42.60
2022-11-02T01:46:11.366Z,42.90
2022-11-02T01:48:47.745Z,48.10
2022-11-02T01:51:24.176Z,47.60
2022-11-02T01:53:51.243Z,47.90
2022-11-02T01:56:20.286Z,45.30
2022-11-02T01:58:52.549Z,46.30
2022-11-02T02:01:19.888Z,41.10
2022-11-02T02:03:47.734Z,42.80
2022-11-02T02:06:15.356Z,38.70
2022-11-02T02:08:47.129Z,39.70
2022-11-02T02:11:41.192Z,36.50
2022-11-02T02:14:12.046Z,43.90
2022-11-02T02:16:55.845Z,41.90
2022-11-02T02:19:37.478Z,36.60
2022-11-02T02:22:25.759Z,41.40
2022-11-02T02:25:07.907Z,39.00
2022-11-02T02:27:44.286Z,36.60
2022-11-02T02:30:11.390Z,40.60
2022-11-02T02:33:01.300Z,39.90
2022-11-02T02:35:44.028Z,28.90
2022-11-02T02:38:25.475Z,29.60
2022-11-02T02:41:24.719Z,27.90
2022-11-02T02:43:55.454Z,29.60
2022-11-02T02:46:26.799Z,35.70
2022-11-02T02:48:55.259Z,35.80
2022-11-02T02:51:24.976Z,32.60
2022-11-02T02:54:06.804Z,31.20
2022-11-02T02:56:40.066Z,31.00
2022-11-02T02:59:21.239Z,32.60
2022-11-02T03:01:48.687Z,38.60
2022-11-02T03:04:16.408Z,31.20
2022-11-02T03:06:47.182Z,36.00
2022-11-02T03:09:34.260Z,31.30
2022-11-02T03:12:27.957Z,33.60
2022-11-02T03:15:20.805Z,35.50
2022-11-02T03:17:51.424Z,37.30
2022-11-02T03:20:40.537Z,37.70
2022-11-02T03:23:13.791Z,36.90
2022-11-02T03:25:57.257Z,38.20
2022-11-02T03:28:26.870Z,37.00
2022-11-02T03:31:03.573Z,40.30
2022-11-02T05:47:08.986Z,40.50
2022-11-02T05:52:05.435Z,45.30
2022-11-02T05:54:33.301Z,40.30
2022-11-02T05:57:00.246Z,45.70
2022-11-02T05:59:27.125Z,41.60
2022-11-02T06:01:54.131Z,27.80
2022-11-02T06:04:21.256Z,34.40
2022-11-02T06:06:48.721Z,29.20
2022-11-02T06:09:15.637Z,34.00
2022-11-02T06:11:43.752Z,34.40
2022-11-02T06:14:14.587Z,33.80
2022-11-02T06:16:42.050Z,34.50
2022-11-02T06:19:09.180Z,38.50
2022-11-02T06:21:38.358Z,32.80
2022-11-02T06:24:05.628Z,35.30
2022-11-02T06:26:33.407Z,35.00
2022-11-02T06:29:00.683Z,32.70
2022-11-02T06:31:28.146Z,29.80
2022-11-02T06:33:55.050Z,24.50
2022-11-02T06:36:22.023Z,25.00
2022-11-02T06:38:49.009Z,20.00
2022-11-02T06:41:16.301Z,21.00
2022-11-02T06:43:43.114Z,19.50
2022-11-02T06:46:11.549Z,22.10
2022-11-02T06:48:38.456Z,22.30
2022-11-02T06:51:06.365Z,23.00
2022-11-02T06:53:33.987Z,19.90
2022-11-02T06:56:01.145Z,20.50
2022-11-02T06:58:28.291Z,18.90
2022-11-02T07:01:05.608Z,19.00
2022-11-02T07:03:32.818Z,20.00
2022-11-02T07:06:02.070Z,20.40
2022-11-02T07:08:29.797Z,23.40
2022-11-02T07:10:57.122Z,19.70
2022-11-02T07:13:24.696Z,16.00
2022-11-02T07:15:53.763Z,18.70
2022-11-02T07:18:21.623Z,21.00
2022-11-02T07:20:48.803Z,14.80
2022-11-02T07:23:15.939Z,12.70
2022-11-02T07:25:43.203Z,15.20
2022-11-02T07:28:10.245Z,14.60
2022-11-02T07:30:41.469Z,17.70
2022-11-02T07:33:09.176Z,15.90
2022-11-02T07:35:38.859Z,17.90
2022-11-02T07:38:07.440Z,19.40
2022-11-02T07:40:35.618Z,16.80
2022-11-02T07:43:03.398Z,16.20
2022-11-02T07:45:39.747Z,20.40
2022-11-02T07:48:06.896Z,17.20
2022-11-02T07:50:34.063Z,17.80
2022-11-02T07:53:01.941Z,18.30
2022-11-02T07:55:31.444Z,22.10
2022-11-02T07:58:09.753Z,20.30
2022-11-02T08:00:38.155Z,22.70
2022-11-02T08:03:06.486Z,18.50
2022-11-02T08:05:35.142Z,25.80
2022-11-02T08:08:07.128Z,23.50
2022-11-02T08:10:37.344Z,17.90
2022-11-02T08:13:11.525Z,21.10
2022-11-02T08:15:39.415Z,19.50
2022-11-02T08:18:12.283Z,18.40
2022-11-02T08:20:40.526Z,17.60
2022-11-02T08:23:10.403Z,16.90
2022-11-02T08:25:38.572Z,19.30
2022-11-02T08:28:06.264Z,17.80
2022-11-02T08:30:33.802Z,16.50
2022-11-02T08:33:06.227Z,19.10
2022-11-02T08:35:39.418Z,17.90
2022-11-02T08:38:07.093Z,16.20
2022-11-02T08:40:35.589Z,17.40
2022-11-02T08:43:04.466Z,16.70
2022-11-02T08:46:00.596Z,16.20
2022-11-02T08:48:22.051Z,18.20
2022-11-02T08:50:49.606Z,17.00
2022-11-02T08:53:16.470Z,17.70
2022-11-02T08:55:43.857Z,15.50
2022-11-02T08:58:10.989Z,17.30
2022-11-02T09:00:40.960Z,15.90
2022-11-02T09:03:09.587Z,18.10
2022-11-02T09:05:44.100Z,17.50
2022-11-02T09:08:13.078Z,17.70
2022-11-02T09:10:40.392Z,16.50
2022-11-02T09:13:08.435Z,16.80
2022-11-02T09:15:36.486Z,17.40
2022-11-02T09:18:04.661Z,18.20
2022-11-02T09:20:31.623Z,17.30
2022-11-02T09:22:58.574Z,14.00
2022-11-02T09:25:25.366Z,18.50
2022-11-02T09:27:55.962Z,15.80
2022-11-02T09:30:25.076Z,15.90
2022-11-02T09:32:54.840Z,17.40
2022-11-02T09:35:21.783Z,19.80
2022-11-02T09:37:50.981Z,17.70
2022-11-02T09:40:21.300Z,18.70
2022-11-02T14:33:37.288Z,12.60
2022-11-02T14:36:16.822Z,9.60
2022-11-02T14:39:09.376Z,12.40
2022-11-02T14:42:09.103Z,13.10
2022-11-02T14:45:08.220Z,11.80
2022-11-02T14:47:37.283Z,9.00
2022-11-02T14:50:16.603Z,13.40
2022-11-02T14:52:54.218Z,10.20
2022-11-02T14:55:34.533Z,8.70
2022-11-02T14:58:10.807Z,10.20
2022-11-02T15:00:47.739Z,26.30
2022-11-02T15:03:24.261Z,23.30
2022-11-02T15:06:22.972Z,15.90
2022-11-02T15:08:51.979Z,11.70
2022-11-02T15:11:48.412Z,11.50
2022-11-02T15:14:43.187Z,7.80
2022-11-02T15:17:17.412Z,7.30
2022-11-02T15:19:50.498Z,10.10
2022-11-02T15:22:46.095Z,8.30
2022-11-02T15:25:20.181Z,15.60
2022-11-02T15:27:47.261Z,21.30
2022-11-02T15:30:26.993Z,15.40
2022-11-02T15:33:01.637Z,13.50
2022-11-02T15:35:31.316Z,16.00
2022-11-02T15:38:16.487Z,13.30
2022-11-02T15:40:57.760Z,11.80
2022-11-02T15:43:43.276Z,17.10
2022-11-02T15:46:35.137Z,12.80
2022-11-02T15:49:08.860Z,13.40
2022-11-02T15:51:54.656Z,13.20
2022-11-02T15:54:27.554Z,10.00
2022-11-02T15:57:00.071Z,11.40
2022-11-02T15:59:50.646Z,11.40
2022-11-02T16:02:25.553Z,14.60
2022-11-02T16:04:58.050Z,14.90
2022-11-02T16:07:38.108Z,11.90
2022-11-02T16:10:22.239Z,11.60
2022-11-02T16:13:11.960Z,15.20
2022-11-02T16:15:42.589Z,18.30
2022-11-02T16:18:31.309Z,19.60
2022-11-02T16:21:02.618Z,18.10
2022-11-02T16:23:31.749Z,20.40
2022-11-02T16:25:59.337Z,18.70
2022-11-02T16:28:30.846Z,20.70
2022-11-02T16:31:19.535Z,15.20
2022-11-02T16:33:59.456Z,16.40
2022-11-02T16:36:29.068Z,21.60
2022-11-02T16:39:06.623Z,18.80
2022-11-02T16:41:34.426Z,12.10
2022-11-02T16:44:15.747Z,13.70
2022-11-02T16:47:06.758Z,11.30
2022-11-02T16:49:34.893Z,12.60
2022-11-02T16:52:20.836Z,14.70
2022-11-02T16:54:47.836Z,12.00
2022-11-02T16:57:28.181Z,10.20
2022-11-02T16:59:56.220Z,11.60
2022-11-02T17:02:40.138Z,12.80
2022-11-02T17:05:33.889Z,12.80
2022-11-02T17:10:36.642Z,17.80
2022-11-02T17:13:06.968Z,14.40
2022-11-02T17:15:37.692Z,18.40
2022-11-02T17:18:09.647Z,14.40
2022-11-02T17:20:38.068Z,15.80
2022-11-02T17:23:09.507Z,17.90
2022-11-02T17:25:37.668Z,15.60
2022-11-02T17:28:41.578Z,18.40
2022-11-02T17:31:21.541Z,19.80
2022-11-02T17:33:49.652Z,20.80
2022-11-02T17:36:16.701Z,23.80
2022-11-02T17:38:44.852Z,34.80
2022-11-02T17:41:32.667Z,28.90
2022-11-02T17:43:59.954Z,27.80
2022-11-02T17:46:26.863Z,21.60
2022-11-02T17:48:53.907Z,17.80
2022-11-02T17:51:24.454Z,26.60
2022-11-02T17:53:51.304Z,23.90
2022-11-02T17:56:18.524Z,17.60
2022-11-02T21:23:51.770Z,19.60
2022-11-02T21:26:19.494Z,15.10
2022-11-02T21:28:46.354Z,16.20
2022-11-02T21:31:16.654Z,13.50
2022-11-02T21:33:44.193Z,12.30
2022-11-02T21:36:12.211Z,14.70
2022-11-02T21:38:39.321Z,13.10
2022-11-02T21:41:07.637Z,15.70
2022-11-02T21:43:38.002Z,17.40
2022-11-02T21:46:06.699Z,13.30
2022-11-02T21:48:35.269Z,18.20
2022-11-02T21:51:15.580Z,14.20
2022-11-02T21:53:43.812Z,17.00
2022-11-02T21:56:17.864Z,13.90
2022-11-02T21:58:46.391Z,15.60
2022-11-02T22:01:38.091Z,16.40
2022-11-02T22:04:05.836Z,26.70
2022-11-02T22:06:33.724Z,23.80
2022-11-02T22:09:01.590Z,28.70
2022-11-02T22:11:28.621Z,28.90
2022-11-02T22:13:57.171Z,17.80
2022-11-02T22:16:25.485Z,17.10
2022-11-02T22:18:56.676Z,16.20
2022-11-02T22:21:24.170Z,14.40
2022-11-02T22:23:52.157Z,12.60
2022-11-02T22:26:21.394Z,9.10
2022-11-02T22:28:48.517Z,13.80
2022-11-02T22:31:16.994Z,14.80
2022-11-02T22:33:48.827Z,18.70
2022-11-02T22:36:19.239Z,16.30
2022-11-02T22:41:16.095Z,15.10
2022-11-02T22:43:43.680Z,15.20
2022-11-02T22:46:11.408Z,14.90
2022-11-02T22:48:38.488Z,16.90
2022-11-02T22:51:06.337Z,15.90
2022-11-02T22:53:33.298Z,14.60
2022-11-02T22:56:03.964Z,16.20
2022-11-02T22:58:32.024Z,16.00
2022-11-02T23:00:59.204Z,16.10
2022-11-02T23:03:26.354Z,28.10
2022-11-02T23:05:53.645Z,25.10
2022-11-02T23:08:20.815Z,24.40
2022-11-02T23:11:06.480Z,21.60
2022-11-02T23:13:34.399Z,18.20
2022-11-02T23:16:21.793Z,14.70
2022-11-02T23:19:28.715Z,13.30
2022-11-02T23:22:33.372Z,20.80
2022-11-02T23:25:11.431Z,14.60
2022-11-02T23:28:04.944Z,14.80
2022-11-02T23:30:52.442Z,20.80
2022-11-02T23:33:19.602Z,28.70
2022-11-02T23:36:07.673Z,23.90
2022-11-02T23:38:53.319Z,20.30
2022-11-02T23:41:21.771Z,18.50
2022-11-02T23:43:48.861Z,16.90
2022-11-02T23:46:16.085Z,28.70
2022-11-02T23:48:44.988Z,17.30
2022-11-02T23:51:33.251Z,26.20
2022-11-02T23:54:19.140Z,32.80
2022-11-02T23:56:46.735Z,38.00
2022-11-02T23:59:15.154Z,24.10
